»·PEaware :: DAL1741 KSLC-KPDX

DAL1741 :: KSLC-KPDX

FLIGHT INFORMATION

Flight Status: Arrived
Operator:
Delta Air Lines
More flights by this operator :: More flights under this callsign
Pilot: Joe P. (13940)
Aircraft: BOEING 737-700
(B737)
More flights by this aircraft type
Origin: KSLC Salt Lake City Intl
United States
Destination: KPDX Portland Intl
United States
More flights between these airports :: More routes between these airports
Route: CGULL1 TWF J15 BOI J163 BKE JOTBA HHOOD4
File this flight plan on PilotEdge
Remarks: KSEA -PBN / A1B1C1D1L1O1S1 NAV / RNVD1E2A1 DOF / 180728 REG / N389DA EET / KZSE0058 RVR / 200 PER / C
Altitude:
(Current/Filed)
320ft
Speed:
(Current/Filed)
462kts
Departed: 28-Jul-18 12:33 PM
Arrived: 28-Jul-18 02:09 PM
Distance/Time
Traveled:
546nm/1:36
Distance/Time
To Go:
Arrived

Flight Plot

Page will automatically refresh every two minutes.

Flight plan parsing failed; only flown route is shown


Map Options




Map Legend


Flown Route
Filed Route
Departure Airport
Arrival Airport
Navaid (VOR, NDB)
Fix

Horizontal Profiles

Position Reports

Time Latitude Longitude Heading Altitude Ground
Speed
28-Jul-18 11:25 40.787383 -111.981153 284 4235ft 0kts
28-Jul-18 11:26 40.787383 -111.981153 284 4235ft 0kts
28-Jul-18 11:27 40.787383 -111.981153 284 4235ft 0kts
28-Jul-18 11:28 40.787383 -111.981153 284 4235ft 0kts
28-Jul-18 11:29 40.787383 -111.981153 284 4235ft 0kts
28-Jul-18 11:30 40.787383 -111.981153 284 4235ft 0kts
28-Jul-18 11:31 40.787383 -111.981153 284 4235ft 0kts
28-Jul-18 11:32 40.787383 -111.981153 284 4235ft 0kts
28-Jul-18 11:33 40.787383 -111.981153 284 4235ft 0kts
28-Jul-18 11:34 40.787383 -111.981153 284 4235ft 0kts
28-Jul-18 11:35 40.787383 -111.981153 284 4235ft 0kts
28-Jul-18 11:36 40.787383 -111.981153 284 4235ft 0kts
28-Jul-18 11:37 40.787383 -111.981153 284 4235ft 0kts
28-Jul-18 11:38 40.787383 -111.981153 284 4235ft 0kts
28-Jul-18 11:39 40.787383 -111.981153 284 4235ft 0kts
28-Jul-18 11:40 40.787383 -111.981153 284 4235ft 0kts
28-Jul-18 11:41 40.787383 -111.981153 284 4235ft 0kts
28-Jul-18 11:42 40.787383 -111.981153 284 4235ft 0kts
28-Jul-18 11:43 40.787383 -111.981153 284 4235ft 0kts
28-Jul-18 11:44 40.787383 -111.981153 284 4235ft 0kts
28-Jul-18 11:45 40.787383 -111.981153 284 4235ft 0kts
28-Jul-18 11:46 40.787383 -111.981153 284 4235ft 0kts
28-Jul-18 11:47 40.787383 -111.981153 284 4235ft 0kts
28-Jul-18 11:48 40.787383 -111.981153 284 4235ft 0kts
28-Jul-18 11:49 40.787383 -111.981153 284 4235ft 0kts
28-Jul-18 11:50 40.787383 -111.981153 284 4235ft 0kts
28-Jul-18 11:51 40.787383 -111.981153 284 4235ft 0kts
28-Jul-18 11:52 40.787383 -111.981153 284 4235ft 0kts
28-Jul-18 11:53 40.787383 -111.981153 284 4235ft 0kts
28-Jul-18 11:54 40.787383 -111.981153 284 4235ft 0kts
28-Jul-18 11:55 40.787383 -111.981153 284 4235ft 0kts
28-Jul-18 11:56 40.787383 -111.981153 284 4235ft 0kts
28-Jul-18 11:57 40.787383 -111.981153 284 4235ft 0kts
28-Jul-18 11:58 40.787383 -111.981153 284 4235ft 0kts
28-Jul-18 11:59 40.787383 -111.981153 284 4235ft 0kts
28-Jul-18 12:00 40.787383 -111.981153 284 4235ft 0kts
28-Jul-18 12:01 40.787383 -111.981153 284 4235ft 0kts
28-Jul-18 12:02 40.787383 -111.981153 284 4235ft 0kts
28-Jul-18 12:03 40.787383 -111.981153 284 4235ft 0kts
28-Jul-18 12:04 40.787383 -111.981153 284 4235ft 0kts
28-Jul-18 12:05 40.787383 -111.981153 284 4235ft 0kts
28-Jul-18 12:06 40.787383 -111.981153 284 4235ft 0kts
28-Jul-18 12:07 40.787383 -111.981153 284 4235ft 0kts
28-Jul-18 12:08 40.787383 -111.981153 284 4235ft 0kts
28-Jul-18 12:09 40.787383 -111.981153 284 4235ft 0kts
28-Jul-18 12:10 40.787383 -111.981153 284 4235ft 0kts
28-Jul-18 12:11 40.787383 -111.981153 284 4235ft 0kts
28-Jul-18 12:12 40.787383 -111.981153 284 4235ft 0kts
28-Jul-18 12:13 40.787383 -111.981153 284 4235ft 0kts
28-Jul-18 12:14 40.787383 -111.981153 284 4235ft 0kts
28-Jul-18 12:15 40.787383 -111.981153 284 4235ft 0kts
28-Jul-18 12:16 40.787383 -111.981153 284 4235ft 0kts
28-Jul-18 12:17 40.787383 -111.981153 284 4235ft 0kts
28-Jul-18 12:18 40.787331 -111.980890 284 4235ft 2kts
28-Jul-18 12:19 40.787228 -111.980366 283 4235ft 0kts
28-Jul-18 12:20 40.787228 -111.980366 283 4235ft 0kts
28-Jul-18 12:21 40.787228 -111.980366 283 4235ft 0kts
28-Jul-18 12:22 40.787228 -111.980366 283 4235ft 0kts
28-Jul-18 12:23 40.787228 -111.980366 283 4235ft 0kts
28-Jul-18 12:24 40.787228 -111.980366 283 4235ft 0kts
28-Jul-18 12:25 40.787339 -111.980516 337 4235ft 5kts
28-Jul-18 12:26 40.788929 -111.979962 9 4235ft 7kts
28-Jul-18 12:27 40.789748 -111.977655 99 4235ft 11kts
28-Jul-18 12:28 40.786007 -111.976683 175 4235ft 16kts
28-Jul-18 12:29 40.781545 -111.976159 172 4235ft 13kts
28-Jul-18 12:30 40.778430 -111.975372 174 4235ft 13kts
28-Jul-18 12:31 40.774675 -111.974996 173 4235ft 13kts
28-Jul-18 12:32 40.774456 -111.974826 106 4235ft 0kts
28-Jul-18 12:33 40.774945 -111.973075 2 4235ft 7kts
28-Jul-18 12:34 40.784812 -111.974299 356 4235ft 100kts
28-Jul-18 12:35 40.827091 -111.979602 354 5823ft 162kts
28-Jul-18 12:36 40.867121 -112.018475 300 8293ft 180kts
28-Jul-18 12:37 40.907884 -112.064182 321 9830ft 243kts
28-Jul-18 12:38 40.956001 -112.140629 305 11711ft 301kts
28-Jul-18 12:39 41.013031 -112.238383 305 13281ft 360kts
28-Jul-18 12:40 41.074457 -112.344605 304 16097ft 367kts
28-Jul-18 12:41 41.137023 -112.453388 304 18738ft 375kts
28-Jul-18 12:42 41.212332 -112.553595 318 20990ft 394kts
28-Jul-18 12:43 41.297469 -112.647501 310 22968ft 401kts
28-Jul-18 12:44 41.373188 -112.758808 309 24778ft 410kts
28-Jul-18 12:45 41.449479 -112.873557 307 26478ft 416kts
28-Jul-18 12:46 41.526028 -112.991255 307 27984ft 423kts
28-Jul-18 12:47 41.603083 -113.110209 306 29717ft 420kts
28-Jul-18 12:48 41.678864 -113.226782 305 31735ft 409kts
28-Jul-18 12:49 41.753401 -113.342022 305 32128ft 408kts
28-Jul-18 12:50 41.827100 -113.456624 305 32133ft 406kts
28-Jul-18 12:51 41.900805 -113.571734 305 32134ft 406kts
28-Jul-18 12:52 41.974372 -113.686834 305 32136ft 405kts
28-Jul-18 12:53 42.047637 -113.801989 304 32137ft 405kts
28-Jul-18 12:54 42.120742 -113.917841 304 32140ft 405kts
28-Jul-18 12:55 42.193696 -114.033512 304 32143ft 405kts
28-Jul-18 12:56 42.266527 -114.149090 304 32145ft 405kts
28-Jul-18 12:57 42.339608 -114.264608 304 32147ft 404kts
28-Jul-18 12:58 42.412270 -114.380856 304 32149ft 404kts
28-Jul-18 12:59 42.484729 -114.497115 304 32150ft 403kts
28-Jul-18 13:00 42.558734 -114.611572 305 32149ft 404kts
28-Jul-18 13:01 42.632416 -114.726143 305 32148ft 403kts
28-Jul-18 13:02 42.706025 -114.841162 305 32146ft 403kts
28-Jul-18 13:03 42.779946 -114.955982 305 32145ft 403kts
28-Jul-18 13:04 42.853376 -115.070966 305 32139ft 403kts
28-Jul-18 13:05 42.926843 -115.186634 304 32129ft 403kts
28-Jul-18 13:06 42.999935 -115.302227 304 32117ft 402kts
28-Jul-18 13:07 43.073098 -115.418415 304 32102ft 402kts
28-Jul-18 13:08 43.145906 -115.534512 304 32094ft 401kts
28-Jul-18 13:09 43.218303 -115.650419 304 32091ft 401kts
28-Jul-18 13:10 43.290592 -115.766623 304 32091ft 399kts
28-Jul-18 13:11 43.362738 -115.882757 304 32092ft 399kts
28-Jul-18 13:12 43.434572 -115.998995 304 32088ft 398kts
28-Jul-18 13:13 43.506232 -116.115918 304 32080ft 399kts
28-Jul-18 13:14 43.582072 -116.228212 311 32070ft 405kts
28-Jul-18 13:15 43.666406 -116.331097 311 32064ft 405kts
28-Jul-18 13:16 43.750575 -116.434503 311 32057ft 405kts
28-Jul-18 13:17 43.820885 -116.521113 311 32055ft 405kts
28-Jul-18 13:18 43.905246 -116.624716 311 32048ft 406kts
28-Jul-18 13:19 44.003355 -116.746161 311 32041ft 405kts
28-Jul-18 13:20 44.087822 -116.851299 311 32036ft 408kts
28-Jul-18 13:21 44.158209 -116.939259 311 32036ft 409kts
28-Jul-18 13:22 44.242933 -117.045542 311 32044ft 409kts
28-Jul-18 13:23 44.327486 -117.152046 311 32059ft 410kts
28-Jul-18 13:24 44.412055 -117.259021 311 32078ft 410kts
28-Jul-18 13:25 44.496639 -117.366439 311 32098ft 410kts
28-Jul-18 13:26 44.581410 -117.474542 311 32114ft 411kts
28-Jul-18 13:27 44.665931 -117.582342 311 32124ft 412kts
28-Jul-18 13:28 44.750469 -117.691248 311 32129ft 412kts
28-Jul-18 13:29 44.829348 -117.806774 293 32130ft 402kts
28-Jul-18 13:30 44.858113 -117.956612 279 32128ft 397kts
28-Jul-18 13:31 44.879142 -118.109749 278 32126ft 398kts
28-Jul-18 13:32 44.899119 -118.263227 278 32126ft 399kts
28-Jul-18 13:33 44.919386 -118.417187 278 32128ft 399kts
28-Jul-18 13:34 44.939170 -118.571476 278 32128ft 400kts
28-Jul-18 13:35 44.958609 -118.726184 278 32132ft 400kts
28-Jul-18 13:36 44.977814 -118.881278 278 32131ft 402kts
28-Jul-18 13:37 44.996811 -119.036663 278 32091ft 402kts
28-Jul-18 13:38 45.015686 -119.192975 278 32073ft 403kts
28-Jul-18 13:39 45.034253 -119.348597 277 32073ft 402kts
28-Jul-18 13:40 45.052731 -119.505345 277 32066ft 403kts
28-Jul-18 13:41 45.070927 -119.661632 277 32059ft 403kts
28-Jul-18 13:42 45.088976 -119.818643 277 32054ft 404kts
28-Jul-18 13:43 45.106824 -119.975791 277 32048ft 404kts
28-Jul-18 13:44 45.124803 -120.133638 277 31857ft 403kts
28-Jul-18 13:45 45.141953 -120.288568 277 29486ft 393kts
28-Jul-18 13:46 45.158287 -120.439909 277 27340ft 383kts
28-Jul-18 13:47 45.191240 -120.581246 294 25235ft 380kts
28-Jul-18 13:48 45.241367 -120.712419 296 23149ft 376kts
28-Jul-18 13:49 45.291395 -120.842363 296 21075ft 373kts
28-Jul-18 13:50 45.340735 -120.972016 296 19010ft 370kts
28-Jul-18 13:51 45.389304 -121.099992 296 16922ft 366kts
28-Jul-18 13:52 45.433962 -121.228084 287 14933ft 355kts
28-Jul-18 13:53 45.460039 -121.361757 284 13202ft 343kts
28-Jul-18 13:54 45.484924 -121.487553 284 12146ft 321kts
28-Jul-18 13:55 45.508379 -121.606873 285 10941ft 304kts
28-Jul-18 13:56 45.529530 -121.720900 278 9829ft 288kts
28-Jul-18 13:57 45.534090 -121.834799 272 8651ft 281kts
28-Jul-18 13:58 45.537441 -121.935985 273 8070ft 229kts
28-Jul-18 13:59 45.541737 -122.021774 274 6858ft 209kts
28-Jul-18 14:00 45.518877 -122.089695 234 6325ft 185kts
28-Jul-18 14:01 45.488766 -122.148974 235 5593ft 182kts
28-Jul-18 14:02 45.464299 -122.210592 242 4863ft 174kts
28-Jul-18 14:03 45.470937 -122.273138 293 4348ft 157kts
28-Jul-18 14:04 45.490474 -122.327987 298 3757ft 154kts
28-Jul-18 14:05 45.511167 -122.381377 298 2923ft 153kts
28-Jul-18 14:06 45.531856 -122.434336 298 2110ft 152kts
28-Jul-18 14:07 45.552397 -122.486922 299 1305ft 151kts
28-Jul-18 14:08 45.572689 -122.538911 299 509ft 146kts
28-Jul-18 14:09 45.590272 -122.584039 300 26ft 67kts
28-Jul-18 14:10 45.592070 -122.590497 276 26ft 0kts
28-Jul-18 14:11 45.592094 -122.590790 276 26ft 11kts
28-Jul-18 14:12 45.591977 -122.593849 185 26ft 3kts
28-Jul-18 14:13 45.591270 -122.594144 203 26ft 0kts
28-Jul-18 14:14 45.591270 -122.594144 203 26ft 0kts
28-Jul-18 14:15 45.591270 -122.594144 203 26ft 0kts
28-Jul-18 14:16 45.591270 -122.594144 203 26ft 0kts
28-Jul-18 14:17 45.591270 -122.594144 203 26ft 0kts
28-Jul-18 14:18 45.591270 -122.594144 203 26ft 0kts
28-Jul-18 14:19 45.591270 -122.594144 203 26ft 0kts
28-Jul-18 14:20 45.591270 -122.594144 203 26ft 0kts
28-Jul-18 14:21 45.591270 -122.594144 203 26ft 0kts
28-Jul-18 14:22 45.591270 -122.594144 203 26ft 0kts
28-Jul-18 14:23 45.591270 -122.594144 203 26ft 0kts
28-Jul-18 14:24 45.591270 -122.594144 203 26ft 0kts

Navigation Log

Ident Type
Flight plan parsing failed, navigation log unavailable